BBC Congo — V2EL3 — position and weather

sailwx.info

Track history (hours):
 
Tides and Currents Weather Stations Pressure Air Temp Water Temp Dewpoint Dewpoint Depression Visibility Wind Speed Wind Dir Waves Ship Positions

BBC Congo

Last reported at 2015-Aug-17 03:20 UTC. Time now 2015-Aug-29 14:42 UTC.
Position N 31°49' W 080°35'.
Warning: this ship's position is 12 days out of date.

Length 144 m; draft 9.3 m.

Type: Ship. MMSI: 305466000.

Date/timePositionNaut miles runAvg speedWind from/ knotsBaromVisibWave heightAir tempDewpointWater temp
2015-Aug-17 03:20N 31°49' W 080°35'1012.3
2015-Aug-17 02:33N 31°56' W 080°41'1110.7
2015-Aug-17 01:33N 32°02' W 080°52'9 8.5
2015-Aug-17 00:33N 32°05' W 081°02'5 4.8
2015-Aug-16 23:33N 32°06' W 081°07'1 1.2
2015-Aug-16 22:32N 32°05' W 081°06'0 0.0
2015-Aug-16 21:32N 32°05' W 081°06'0 0.0
2015-Aug-16 20:32N 32°05' W 081°06'0 0.0
2015-Aug-16 19:32N 32°05' W 081°06'0 0.0
2015-Aug-16 18:29N 32°05' W 081°06'0 0.0
2015-Aug-16 17:32N 32°05' W 081°06'0 0.0
2015-Aug-16 16:32N 32°05' W 081°06'0 0.0
2015-Aug-16 15:32N 32°05' W 081°06'0 0.0
2015-Aug-16 14:32N 32°05' W 081°06'0 0.0
2015-Aug-16 13:32N 32°05' W 081°06'0 0.0
2015-Aug-16 12:33N 32°05' W 081°06'6 5.7
2015-Aug-16 11:33N 32°05' W 080°59'1212.0
2015-Aug-16 10:33N 31°60' W 080°47'32214.5
2015-Aug-15 12:19N 26°45' W 079°28'1216.6
2015-Aug-15 11:33N 26°32' W 079°28'1616.4
2015-Aug-15 10:33N 26°16' W 079°29'1716.6
2015-Aug-15 09:33N 25°60' W 079°32'2116.8
2015-Aug-15 08:19N 25°39' W 079°35'  
2015-Aug-13 00:04N 29°52' W 089°57'6 2.3
2015-Aug-12 21:23N 29°57' W 090°01'0 0.0
2015-Aug-12 20:14N 29°57' W 090°01'0 0.0
2015-Aug-12 18:32N 29°57' W 090°01'0 0.0
2015-Aug-12 17:05N 29°57' W 090°01'0 0.0
2015-Aug-12 16:08N 29°57' W 090°01'0 0.0
2015-Aug-11 02:14N 29°57' W 090°01'  
2015-Aug-08 14:24N 29°57' W 090°00'  
Track history (hours):
 
Tides and Currents Weather Stations Pressure Air Temp Water Temp Dewpoint Dewpoint Depression Visibility Wind Speed Wind Dir Waves Ship Positions

BBC Congo

Last reported at 2015-Aug-17 03:20 UTC. Time now 2015-Aug-29 14:42 UTC.
Position N 31°49' W 080°35'.
Warning: this ship's position is 12 days out of date.

Length 144 m; draft 9.3 m.

Type: Ship. MMSI: 305466000.

Date/timePositionNaut miles runAvg speedWind from/ knotsBaromVisibWave heightAir tempDewpointWater temp
2015-Aug-17 03:20N 31°49' W 080°35'1012.3
2015-Aug-17 02:33N 31°56' W 080°41'1110.7
2015-Aug-17 01:33N 32°02' W 080°52'9 8.5
2015-Aug-17 00:33N 32°05' W 081°02'5 4.8
2015-Aug-16 23:33N 32°06' W 081°07'1 1.2
2015-Aug-16 22:32N 32°05' W 081°06'0 0.0
2015-Aug-16 21:32N 32°05' W 081°06'0 0.0
2015-Aug-16 20:32N 32°05' W 081°06'0 0.0
2015-Aug-16 19:32N 32°05' W 081°06'0 0.0
2015-Aug-16 18:29N 32°05' W 081°06'0 0.0
2015-Aug-16 17:32N 32°05' W 081°06'0 0.0
2015-Aug-16 16:32N 32°05' W 081°06'0 0.0
2015-Aug-16 15:32N 32°05' W 081°06'0 0.0
2015-Aug-16 14:32N 32°05' W 081°06'0 0.0
2015-Aug-16 13:32N 32°05' W 081°06'0 0.0
2015-Aug-16 12:33N 32°05' W 081°06'6 5.7
2015-Aug-16 11:33N 32°05' W 080°59'1212.0
2015-Aug-16 10:33N 31°60' W 080°47'32214.5
2015-Aug-15 12:19N 26°45' W 079°28'1216.6
2015-Aug-15 11:33N 26°32' W 079°28'1616.4
2015-Aug-15 10:33N 26°16' W 079°29'1716.6
2015-Aug-15 09:33N 25°60' W 079°32'2116.8
2015-Aug-15 08:19N 25°39' W 079°35'  
2015-Aug-13 00:04N 29°52' W 089°57'6 2.3
2015-Aug-12 21:23N 29°57' W 090°01'0 0.0
2015-Aug-12 20:14N 29°57' W 090°01'0 0.0
2015-Aug-12 18:32N 29°57' W 090°01'0 0.0
2015-Aug-12 17:05N 29°57' W 090°01'0 0.0
2015-Aug-12 16:08N 29°57' W 090°01'0 0.0
2015-Aug-11 02:14N 29°57' W 090°01'  
2015-Aug-08 14:24N 29°57' W 090°00'  

Dump ship's entire track history